createdAt,value
2018-12-29T00:11:10.292Z,69.33
2018-12-29T00:13:39.873Z,64.87
2018-12-29T00:16:09.400Z,64.57
2018-12-29T00:18:38.958Z,65.57
2018-12-29T00:21:08.643Z,59.23
2018-12-29T00:23:41.228Z,63.00
2018-12-29T00:26:10.847Z,58.57
2018-12-29T00:28:40.442Z,76.23
2018-12-29T00:31:10.184Z,57.13
2018-12-29T00:33:39.703Z,52.80
2018-12-29T00:36:09.394Z,56.10
2018-12-29T00:38:38.970Z,57.40
2018-12-29T00:41:08.714Z,66.97
2018-12-29T00:43:41.671Z,54.13
2018-12-29T00:46:11.329Z,63.97
2018-12-29T00:48:40.903Z,58.33
2018-12-29T00:51:10.567Z,61.87
2018-12-29T00:53:40.151Z,50.13
2018-12-29T00:56:10.659Z,53.47
2018-12-29T00:58:40.182Z,63.17
2018-12-29T01:01:13.883Z,52.10
2018-12-29T01:03:43.479Z,52.33
2018-12-29T01:06:13.351Z,57.30
2018-12-29T01:08:43.119Z,74.93
2018-12-29T01:11:12.770Z,63.13
2018-12-29T01:13:42.390Z,62.87
2018-12-29T01:16:11.986Z,53.57
2018-12-29T01:18:41.550Z,54.77
2018-12-29T01:21:11.217Z,57.10
2018-12-29T01:23:40.858Z,58.73
2018-12-29T01:26:10.415Z,64.77
2018-12-29T01:28:40.074Z,60.90
2018-12-29T01:31:09.755Z,65.90
2018-12-29T01:33:39.606Z,62.90
2018-12-29T01:36:09.167Z,64.57
2018-12-29T01:38:39.043Z,62.03
2018-12-29T01:41:08.574Z,66.00
2018-12-29T01:43:38.156Z,52.43
2018-12-29T01:46:07.982Z,65.97
2018-12-29T01:48:37.537Z,62.30
2018-12-29T01:51:07.148Z,55.97
2018-12-29T01:53:36.838Z,62.83
2018-12-29T01:56:06.498Z,58.90
2018-12-29T01:58:36.213Z,66.37
2018-12-29T02:01:05.707Z,60.13
2018-12-29T02:03:35.355Z,60.70
2018-12-29T02:06:04.949Z,54.97
2018-12-29T02:08:34.526Z,59.77
2018-12-29T02:11:04.117Z,71.80
2018-12-29T02:13:33.618Z,62.10
2018-12-29T03:30:28.962Z,65.03
2018-12-29T03:33:01.538Z,65.87
2018-12-29T03:35:31.095Z,62.13
2018-12-29T03:38:00.716Z,68.20
2018-12-29T03:40:30.475Z,62.60
2018-12-29T03:43:00.111Z,62.63
2018-12-29T03:45:29.695Z,75.07
2018-12-29T03:48:00.825Z,63.50
2018-12-29T03:50:30.454Z,68.30
2018-12-29T03:53:00.045Z,80.77
2018-12-29T03:55:29.641Z,79.77
2018-12-29T03:57:59.307Z,55.27
2018-12-29T04:00:28.851Z,65.90
2018-12-29T04:02:58.525Z,58.63
2018-12-29T04:05:28.042Z,66.80
2018-12-29T04:07:57.616Z,77.67
2018-12-29T04:10:27.362Z,79.03
2018-12-29T04:12:57.068Z,69.67
2018-12-29T04:15:26.790Z,66.00
2018-12-29T04:17:56.390Z,71.80
2018-12-29T04:20:25.978Z,65.97
2018-12-29T04:22:55.555Z,66.63
2018-12-29T04:25:25.104Z,54.40
2018-12-29T04:27:54.832Z,77.13
2018-12-29T04:30:24.666Z,71.93
2018-12-29T04:32:54.273Z,86.63
2018-12-29T04:35:23.883Z,58.10
2018-12-29T04:37:53.488Z,60.40
2018-12-29T04:40:23.347Z,57.90
2018-12-29T04:42:52.851Z,71.37
2018-12-29T04:45:22.443Z,53.77
2018-12-29T04:47:52.123Z,63.17
2018-12-29T04:50:21.789Z,57.37
2018-12-29T04:52:51.380Z,64.10
2018-12-29T04:55:21.061Z,59.77
2018-12-29T04:57:50.574Z,70.90
2018-12-29T05:00:20.431Z,58.77
2018-12-29T05:02:49.943Z,55.47
2018-12-29T05:05:19.744Z,55.67
2018-12-29T05:07:49.341Z,55.60
2018-12-29T05:20:13.791Z,56.50
2018-12-29T05:22:43.453Z,67.90
2018-12-29T05:25:13.207Z,59.03
2018-12-29T05:27:42.795Z,55.77
2018-12-29T05:30:12.582Z,61.97
2018-12-29T05:32:42.179Z,62.00
2018-12-29T05:35:12.027Z,52.27
2018-12-29T05:37:42.872Z,57.60
2018-12-29T05:40:12.575Z,52.77
2018-12-29T05:42:42.112Z,52.67
2018-12-29T05:45:11.609Z,51.40
2018-12-29T05:47:41.117Z,56.23
2018-12-29T05:50:10.795Z,54.43
2018-12-29T05:52:40.379Z,63.00
2018-12-29T05:55:10.121Z,47.67
2018-12-29T05:57:39.758Z,49.17
2018-12-29T06:00:09.562Z,50.73
2018-12-29T06:02:39.114Z,53.37
2018-12-29T06:05:10.514Z,48.03
2018-12-29T06:07:40.122Z,52.70
2018-12-29T06:10:09.715Z,58.40
2018-12-29T06:12:39.207Z,62.20
2018-12-29T06:15:08.874Z,45.73
2018-12-29T06:17:38.378Z,51.63
2018-12-29T06:20:08.038Z,42.90
2018-12-29T06:22:37.535Z,51.23
2018-12-29T06:25:07.247Z,51.23
2018-12-29T06:27:36.832Z,46.47
2018-12-29T06:30:06.628Z,53.30
2018-12-29T06:32:36.366Z,46.07
2018-12-29T06:35:05.891Z,48.83
2018-12-29T06:37:38.287Z,53.87
2018-12-29T06:40:07.850Z,42.47
2018-12-29T06:42:37.643Z,43.07
2018-12-29T06:45:07.266Z,46.50
2018-12-29T06:47:36.823Z,36.90
2018-12-29T06:50:06.594Z,43.40
2018-12-29T06:52:36.155Z,38.07
2018-12-29T06:55:05.927Z,38.13
2018-12-29T06:57:35.519Z,52.07
2018-12-29T07:00:07.482Z,42.50
2018-12-29T07:02:37.118Z,47.70
2018-12-29T07:05:06.888Z,42.30
2018-12-29T07:07:36.846Z,49.43
2018-12-29T07:10:06.603Z,42.30
2018-12-29T07:12:36.135Z,41.80
2018-12-29T07:15:07.364Z,47.30
2018-12-29T07:17:37.036Z,39.47
2018-12-29T07:20:06.828Z,44.37
2018-12-29T07:22:36.430Z,42.80
2018-12-29T07:25:05.998Z,48.97
2018-12-29T07:27:35.729Z,39.67
2018-12-29T07:30:07.244Z,45.37
2018-12-29T07:32:36.939Z,44.20
2018-12-29T07:35:06.645Z,49.20
2018-12-29T07:37:36.231Z,46.07
2018-12-29T07:40:06.402Z,43.73
2018-12-29T07:42:35.998Z,39.77
2018-12-29T07:45:05.562Z,48.37
2018-12-29T07:47:35.101Z,40.77
2018-12-29T07:50:05.054Z,49.00
2018-12-29T07:52:34.618Z,47.03
2018-12-29T07:55:04.570Z,38.50
2018-12-29T07:57:34.185Z,40.23
2018-12-29T08:00:04.823Z,41.60
2018-12-29T08:02:34.350Z,44.03
2018-12-29T08:05:04.179Z,51.53
2018-12-29T08:07:33.690Z,42.63
2018-12-29T08:10:03.870Z,59.23
2018-12-29T08:12:33.492Z,56.30
2018-12-29T08:15:04.726Z,49.83
2018-12-29T08:17:34.534Z,46.67
2018-12-29T08:20:04.439Z,46.80
2018-12-29T08:22:34.271Z,43.83
2018-12-29T08:25:04.650Z,45.77
2018-12-29T08:27:34.317Z,43.87
2018-12-29T08:30:04.719Z,53.20
2018-12-29T08:32:34.222Z,46.87
2018-12-29T08:35:04.137Z,48.53
2018-12-29T08:37:33.759Z,46.00
2018-12-29T08:40:03.548Z,43.53
2018-12-29T08:42:33.136Z,47.87
2018-12-29T08:45:04.108Z,37.20
2018-12-29T08:47:33.856Z,48.23
2018-12-29T08:50:12.721Z,45.47
2018-12-29T08:52:36.451Z,42.40
2018-12-29T08:55:06.186Z,44.03
2018-12-29T08:57:36.073Z,41.93
2018-12-29T09:00:07.304Z,41.33
2018-12-29T09:02:37.201Z,53.03
2018-12-29T09:05:06.926Z,46.90
2018-12-29T09:07:36.623Z,52.50
2018-12-29T09:10:06.504Z,44.43
2018-12-29T09:12:36.304Z,45.00
2018-12-29T09:15:06.287Z,49.00
2018-12-29T09:17:35.998Z,44.10
2018-12-29T09:20:06.912Z,41.93
2018-12-29T09:22:43.063Z,46.97
2018-12-29T09:25:12.634Z,47.73
2018-12-29T09:27:42.310Z,45.57
2018-12-29T09:30:13.548Z,47.93
2018-12-29T09:32:43.418Z,45.37
2018-12-29T09:35:12.997Z,43.10
2018-12-29T09:37:42.865Z,40.70
2018-12-29T09:40:12.512Z,41.87
2018-12-29T09:42:42.202Z,45.30
2018-12-29T09:45:11.981Z,44.33
2018-12-29T09:47:41.640Z,49.83
2018-12-29T09:50:11.334Z,42.27
2018-12-29T09:52:41.011Z,59.83
2018-12-29T09:55:10.603Z,41.50
2018-12-29T09:57:40.412Z,36.53
2018-12-29T10:00:10.214Z,43.83
2018-12-29T10:02:39.994Z,40.00
2018-12-29T10:05:09.822Z,43.23
2018-12-29T10:07:39.349Z,41.73
2018-12-29T10:10:08.890Z,46.63
2018-12-29T10:12:38.451Z,42.57
2018-12-29T10:15:08.117Z,46.20
2018-12-29T10:17:37.675Z,49.80
2018-12-29T10:20:07.327Z,39.00
2018-12-29T10:22:37.387Z,42.03
2018-12-29T10:25:07.041Z,42.20
2018-12-29T10:27:36.608Z,48.30
2018-12-29T10:30:06.613Z,47.53
2018-12-29T10:32:36.388Z,49.80
2018-12-29T10:35:06.113Z,44.40
2018-12-29T10:37:35.855Z,49.50
2018-12-29T10:40:05.952Z,52.13
2018-12-29T10:42:35.601Z,48.90
2018-12-29T10:45:05.522Z,52.60
2018-12-29T10:47:36.757Z,36.87
2018-12-29T10:50:07.398Z,59.17
2018-12-29T10:52:36.950Z,54.73
2018-12-29T10:55:07.208Z,50.03
2018-12-29T10:57:36.752Z,51.50
2018-12-29T11:00:08.886Z,54.57
2018-12-29T11:02:38.731Z,54.67
2018-12-29T11:05:09.036Z,51.03
2018-12-29T11:07:38.727Z,57.07
2018-12-29T11:10:08.475Z,49.33
2018-12-29T11:12:38.308Z,57.77
2018-12-29T11:15:07.890Z,46.20
2018-12-29T11:17:42.182Z,57.00
2018-12-29T11:20:10.581Z,49.50
2018-12-29T11:22:40.509Z,60.40
2018-12-29T11:25:10.198Z,41.10
2018-12-29T11:27:39.859Z,43.33
2018-12-29T11:30:09.785Z,54.20
2018-12-29T11:32:39.462Z,45.80
2018-12-29T11:35:09.038Z,43.77
2018-12-29T11:37:38.678Z,44.23
2018-12-29T11:40:08.306Z,53.47
2018-12-29T11:42:38.114Z,47.63
2018-12-29T11:45:07.799Z,39.50
2018-12-29T11:47:37.580Z,40.17
2018-12-29T11:50:08.189Z,42.00
2018-12-29T11:52:38.139Z,46.47
2018-12-29T11:55:07.731Z,47.03
2018-12-29T11:57:37.551Z,42.40
2018-12-29T12:00:08.779Z,36.27
2018-12-29T12:02:38.584Z,47.67
2018-12-29T12:05:08.230Z,50.70
2018-12-29T12:07:37.798Z,47.43
2018-12-29T12:10:07.554Z,42.90
2018-12-29T12:12:37.553Z,42.27
2018-12-29T12:15:07.400Z,42.53
2018-12-29T12:17:37.007Z,45.13
2018-12-29T12:20:06.747Z,48.50
2018-12-29T12:22:36.510Z,35.93
2018-12-29T12:25:06.345Z,45.60
2018-12-29T12:27:36.150Z,43.43
2018-12-29T12:30:07.077Z,44.90
2018-12-29T12:32:36.979Z,41.57
2018-12-29T12:35:08.719Z,47.03
2018-12-29T12:37:38.480Z,52.40
2018-12-29T12:40:09.005Z,44.47
2018-12-29T12:42:42.548Z,45.17
2018-12-29T12:45:12.217Z,45.93
2018-12-29T12:47:41.895Z,39.50
2018-12-29T12:50:13.716Z,36.13
2018-12-29T12:52:45.091Z,39.80
2018-12-29T13:05:10.214Z,38.73
2018-12-29T13:07:39.954Z,41.83
2018-12-29T13:10:09.924Z,28.30
2018-12-29T13:12:39.604Z,42.63
2018-12-29T13:15:09.284Z,40.43
2018-12-29T13:17:38.915Z,39.53
2018-12-29T13:20:08.544Z,36.10
2018-12-29T13:22:38.264Z,37.27
2018-12-29T13:25:07.837Z,38.67
2018-12-29T13:27:37.555Z,37.90
2018-12-29T13:30:07.366Z,34.03
2018-12-29T13:32:37.146Z,31.70
2018-12-29T13:35:06.959Z,40.67
2018-12-29T13:37:36.655Z,35.90
2018-12-29T13:40:08.961Z,34.93
2018-12-29T13:42:38.496Z,36.43
2018-12-29T13:45:08.206Z,41.47
2018-12-29T13:47:38.052Z,40.10
2018-12-29T13:50:08.496Z,35.47
2018-12-29T13:52:38.082Z,35.33
2018-12-29T13:55:07.725Z,43.33
2018-12-29T13:57:38.561Z,37.43
2018-12-29T14:00:09.590Z,35.57
2018-12-29T14:02:39.165Z,44.70
2018-12-29T14:05:11.017Z,34.30
2018-12-29T14:07:40.572Z,41.80
2018-12-29T14:10:10.213Z,30.50
2018-12-29T14:12:39.883Z,34.70
2018-12-29T14:15:09.739Z,34.13
2018-12-29T14:17:39.410Z,31.37
2018-12-29T14:20:09.315Z,33.87
2018-12-29T14:22:39.166Z,34.10
2018-12-29T14:25:11.951Z,30.83
2018-12-29T14:27:41.717Z,33.80
2018-12-29T14:30:11.964Z,33.30
2018-12-29T14:32:41.584Z,34.53
2018-12-29T14:35:11.398Z,28.20
2018-12-29T21:12:31.799Z,20.23
2018-12-29T21:15:01.499Z,20.93
